createdAt,value
2023-02-27T00:00:21.960Z,99343.84
2023-02-27T00:02:51.386Z,99349.03
2023-02-27T00:05:19.668Z,99353.31
2023-02-27T00:07:46.161Z,99351.59
2023-02-27T00:10:22.071Z,99349.88
2023-02-27T00:12:51.629Z,99355.00
2023-02-27T00:15:20.577Z,99357.63
2023-02-27T00:17:47.202Z,99348.19
2023-02-27T00:20:17.257Z,99353.34
2023-02-27T00:22:44.707Z,99348.16
2023-02-27T00:25:12.964Z,99349.84
2023-02-27T00:27:40.241Z,99353.28
2023-02-27T00:30:13.314Z,99352.44
2023-02-27T00:32:40.600Z,99355.88
2023-02-27T00:35:11.338Z,99350.75
2023-02-27T00:37:41.428Z,99357.59
2023-02-27T00:40:08.978Z,99357.63
2023-02-27T00:42:35.778Z,99356.75
2023-02-27T00:45:03.997Z,99356.75
2023-02-27T00:47:30.981Z,99361.88
2023-02-27T00:49:57.544Z,99359.34
2023-02-27T00:52:24.190Z,99364.44
2023-02-27T00:54:50.697Z,99356.72
2023-02-27T00:57:17.490Z,99355.88
2023-02-27T00:59:49.347Z,99357.56
2023-02-27T01:02:15.943Z,99354.97
2023-02-27T01:04:42.892Z,99359.25
2023-02-27T01:07:09.905Z,99363.56
2023-02-27T01:09:36.631Z,99366.13
2023-02-27T01:12:03.326Z,99358.41
2023-02-27T01:14:30.164Z,99359.25
2023-02-27T01:16:58.026Z,99352.38
2023-02-27T01:19:25.651Z,99357.56
2023-02-27T01:21:52.816Z,99353.22
2023-02-27T01:24:19.896Z,99354.06
2023-02-27T01:26:47.496Z,99347.19
2023-02-27T01:29:15.746Z,99348.91
2023-02-27T01:31:42.443Z,99346.38
2023-02-27T01:34:09.155Z,99346.31
2023-02-27T01:36:36.040Z,99341.19
2023-02-27T01:39:02.587Z,99346.34
2023-02-27T01:41:29.724Z,99342.91
2023-02-27T01:44:03.735Z,99342.06
2023-02-27T01:46:32.637Z,99343.78
2023-02-27T01:49:24.492Z,99335.22
2023-02-27T01:52:02.906Z,99339.53
2023-02-27T01:54:44.935Z,99341.22
2023-02-27T01:57:11.578Z,99337.81
2023-02-27T01:59:42.269Z,99346.41
2023-02-27T02:02:19.477Z,99342.94
2023-02-27T02:04:50.220Z,99344.66
2023-02-27T02:07:19.649Z,99343.81
2023-02-27T02:09:57.154Z,99351.56
2023-02-27T02:12:35.838Z,99352.38
2023-02-27T02:15:04.032Z,99352.38
2023-02-27T02:18:00.609Z,99355.81
2023-02-27T02:21:00.842Z,99351.50
2023-02-27T02:24:08.793Z,99356.66
2023-02-27T02:26:51.190Z,99350.59
2023-02-27T02:29:58.249Z,99355.66
2023-02-27T02:32:45.934Z,99359.13
2023-02-27T02:36:04.553Z,99359.13
2023-02-27T02:38:44.836Z,99360.84
2023-02-27T02:41:43.526Z,99363.34
2023-02-27T02:44:40.702Z,99360.78
2023-02-27T02:47:58.186Z,99358.25
2023-02-27T02:50:57.376Z,99366.78
2023-02-27T02:53:50.984Z,99361.63
2023-02-27T02:56:35.171Z,99358.25
2023-02-27T02:59:44.177Z,99357.38
2023-02-27T03:02:17.992Z,99362.50
2023-02-27T03:05:00.297Z,99358.25
2023-02-27T03:07:57.670Z,99358.19
2023-02-27T03:10:45.150Z,99364.19
2023-02-27T03:13:29.469Z,99365.91
2023-02-27T03:16:11.467Z,99368.38
2023-02-27T03:18:49.672Z,99368.31
2023-02-27T03:21:26.288Z,99365.75
2023-02-27T03:24:00.181Z,99368.31
2023-02-27T03:26:35.185Z,99360.63
2023-02-27T03:29:08.702Z,99361.50
2023-02-27T03:31:56.553Z,99369.16
2023-02-27T03:34:33.050Z,99362.31
2023-02-27T03:37:35.828Z,99360.56
2023-02-27T03:40:27.312Z,99358.91
2023-02-27T03:43:22.517Z,99364.03
2023-02-27T03:46:04.498Z,99358.06
2023-02-27T03:48:31.315Z,99364.84
2023-02-27T03:50:59.512Z,99367.44
2023-02-27T03:53:41.250Z,99365.66
2023-02-27T03:56:12.194Z,99372.44
2023-02-27T03:58:38.731Z,99368.22
2023-02-27T04:01:05.741Z,99375.13
2023-02-27T04:03:39.896Z,99378.53
2023-02-27T04:06:27.076Z,99371.66
2023-02-27T04:09:16.857Z,99388.78
2023-02-27T04:11:58.708Z,99390.50
2023-02-27T04:14:51.659Z,99391.41
2023-02-27T04:17:27.005Z,99396.63
2023-02-27T04:20:22.146Z,99399.97
2023-02-27T04:23:00.738Z,99397.41
2023-02-27T04:26:20.178Z,99400.94
2023-02-27T04:29:11.421Z,99403.47
2023-02-27T04:31:57.407Z,99406.91
2023-02-27T04:34:40.976Z,99407.84
2023-02-27T04:37:17.307Z,99406.13
2023-02-27T04:39:55.207Z,99408.66
2023-02-27T04:42:29.293Z,99407.75
2023-02-27T04:45:03.194Z,99406.91
2023-02-27T04:47:41.759Z,99411.13
2023-02-27T04:50:19.536Z,99408.53
2023-02-27T04:53:18.006Z,99410.28
2023-02-27T04:55:54.066Z,99409.44
2023-02-27T04:58:33.349Z,99412.88
2023-02-27T05:01:07.868Z,99409.44
2023-02-27T05:03:42.484Z,99414.59
2023-02-27T05:06:11.283Z,99417.03
2023-02-27T05:09:03.179Z,99419.53
2023-02-27T05:12:00.008Z,99415.28
2023-02-27T05:14:45.390Z,99416.13
2023-02-27T05:17:25.672Z,99421.28
2023-02-27T05:19:52.772Z,99415.38
2023-02-27T05:22:46.970Z,99416.16
2023-02-27T05:25:31.681Z,99428.81
2023-02-27T05:28:27.642Z,99429.63
2023-02-27T05:31:15.794Z,99433.97
2023-02-27T05:34:10.204Z,99435.78
2023-02-27T05:36:47.593Z,99438.44
2023-02-27T05:39:20.351Z,99431.56
2023-02-27T05:42:07.266Z,99436.66
2023-02-27T05:44:40.372Z,99446.09
2023-02-27T05:47:16.483Z,99439.25
2023-02-27T05:49:53.945Z,99440.13
2023-02-27T05:52:26.622Z,99440.13
2023-02-27T05:55:18.962Z,99440.94
2023-02-27T05:57:56.256Z,99440.97
2023-02-27T06:00:57.610Z,99438.31
2023-02-27T06:03:26.979Z,99436.59
2023-02-27T06:05:58.999Z,99436.56
2023-02-27T06:08:25.737Z,99439.88
2023-02-27T06:10:52.395Z,99437.19
2023-02-27T06:13:19.083Z,99438.88
2023-02-27T06:15:45.820Z,99442.38
2023-02-27T06:18:14.867Z,99449.22
2023-02-27T06:20:43.349Z,99450.19
2023-02-27T06:23:10.802Z,99447.69
2023-02-27T06:25:37.945Z,99448.50
2023-02-27T06:28:05.480Z,99451.03
2023-02-27T06:30:32.185Z,99458.66
2023-02-27T06:33:01.700Z,99453.47
2023-02-27T06:35:29.387Z,99459.50
2023-02-27T06:37:59.211Z,99457.69
2023-02-27T06:40:26.247Z,99459.34
2023-02-27T06:42:52.728Z,99459.34
2023-02-27T06:45:19.267Z,99461.97
2023-02-27T06:47:45.772Z,99469.81
2023-02-27T06:50:14.423Z,99470.69
2023-02-27T06:52:41.191Z,99471.63
2023-02-27T06:55:09.312Z,99474.91
2023-02-27T06:57:36.186Z,99482.38
2023-02-27T07:00:06.900Z,99476.31
2023-02-27T07:02:33.388Z,99482.53
2023-02-27T07:04:59.924Z,99479.16
2023-02-27T07:07:34.247Z,99486.03
2023-02-27T07:10:06.563Z,99481.78
2023-02-27T07:12:33.123Z,99484.44
2023-02-27T07:14:59.997Z,99482.72
2023-02-27T07:17:26.491Z,99492.28
2023-02-27T07:19:59.791Z,99494.91
2023-02-27T07:22:26.350Z,99497.44
2023-02-27T07:24:52.777Z,99493.16
2023-02-27T07:27:19.266Z,99497.47
2023-02-27T07:29:46.263Z,99500.84
2023-02-27T07:32:13.055Z,99509.34
2023-02-27T07:34:39.539Z,99507.47
2023-02-27T07:37:06.066Z,99503.31
2023-02-27T07:39:36.731Z,99509.31
2023-02-27T07:42:03.443Z,99510.28
2023-02-27T07:44:31.636Z,99513.75
2023-02-27T07:46:59.481Z,99505.91
2023-02-27T07:49:25.950Z,99510.34
2023-02-27T07:51:52.424Z,99501.03
2023-02-27T07:54:19.044Z,99508.00
2023-02-27T07:56:49.747Z,99503.78
2023-02-27T07:59:16.185Z,99503.94
2023-02-27T08:01:42.694Z,99510.94
2023-02-27T08:04:09.653Z,99511.03
2023-02-27T08:06:39.123Z,99511.06
2023-02-27T08:09:05.954Z,99500.00
2023-02-27T08:11:32.553Z,99511.19
2023-02-27T08:14:01.069Z,99511.25
2023-02-27T08:16:29.073Z,99508.75
2023-02-27T08:18:56.684Z,99510.50
2023-02-27T08:21:37.654Z,99511.38
2023-02-27T08:24:04.200Z,99513.97
2023-02-27T08:26:33.523Z,99510.56
2023-02-27T08:29:00.070Z,99515.75
2023-02-27T08:31:26.743Z,99520.03
2023-02-27T08:34:01.263Z,99514.88
2023-02-27T08:36:41.481Z,99517.44
2023-02-27T08:39:09.346Z,99522.59
2023-02-27T08:41:36.544Z,99523.47
2023-02-27T08:44:03.632Z,99515.72
2023-02-27T08:46:30.526Z,99515.69
2023-02-27T08:48:57.170Z,99519.94
2023-02-27T08:51:23.686Z,99516.50
2023-02-27T08:53:50.271Z,99515.59
2023-02-27T08:56:16.748Z,99512.91
2023-02-27T08:58:43.271Z,99514.59
2023-02-27T09:01:09.790Z,99503.31
2023-02-27T09:03:37.294Z,99513.59
2023-02-27T09:06:03.970Z,99521.38
2023-02-27T09:08:30.539Z,99518.78
2023-02-27T09:10:57.908Z,99509.28
2023-02-27T09:13:26.832Z,99514.50
2023-02-27T09:15:53.693Z,99514.44
2023-02-27T09:18:20.614Z,99521.28
2023-02-27T09:20:51.305Z,99516.09
2023-02-27T09:23:18.383Z,99517.81
2023-02-27T09:25:47.263Z,99522.97
2023-02-27T09:28:13.850Z,99515.09
2023-02-27T09:30:40.488Z,99514.16
2023-02-27T09:33:15.805Z,99519.25
2023-02-27T09:35:42.566Z,99524.47
2023-02-27T09:38:18.959Z,99531.34
2023-02-27T09:40:50.400Z,99526.06
2023-02-27T09:43:48.292Z,99534.63
2023-02-27T09:46:27.297Z,99537.06
2023-02-27T09:48:59.937Z,99537.91
2023-02-27T09:51:29.281Z,99531.72
2023-02-27T09:54:01.107Z,99535.19
2023-02-27T09:56:54.156Z,99529.03
2023-02-27T09:59:52.696Z,99536.00
2023-02-27T10:02:47.131Z,99526.50
2023-02-27T10:05:31.154Z,99535.03
2023-02-27T10:08:52.445Z,99538.34
2023-02-27T10:11:44.017Z,99532.28
2023-02-27T10:14:44.198Z,99539.91
2023-02-27T10:17:31.295Z,99530.28
2023-02-27T10:20:02.199Z,99531.94
2023-02-27T10:22:37.736Z,99524.88
2023-02-27T10:25:29.721Z,99528.31
2023-02-27T10:28:11.033Z,99522.88
2023-02-27T10:30:37.733Z,99527.06
2023-02-27T10:33:22.074Z,99530.56
2023-02-27T10:35:50.652Z,99534.34
2023-02-27T10:38:31.990Z,99520.56
2023-02-27T10:41:01.145Z,99527.34
2023-02-27T10:43:27.693Z,99528.94
2023-02-27T10:45:54.673Z,99518.50
2023-02-27T10:48:22.976Z,99512.47
2023-02-27T10:50:53.814Z,99518.81
2023-02-27T10:53:28.083Z,99496.25
2023-02-27T10:56:07.981Z,99509.22
2023-02-27T10:58:36.931Z,99505.09
2023-02-27T11:01:11.186Z,99506.97
2023-02-27T11:03:43.386Z,99501.38
2023-02-27T11:06:25.081Z,99506.84
2023-02-27T11:09:21.755Z,99497.50
2023-02-27T11:11:52.608Z,99511.91
2023-02-27T11:14:19.030Z,99496.03
2023-02-27T11:16:52.092Z,99489.81
2023-02-27T11:19:39.379Z,99482.66
2023-02-27T11:22:20.211Z,99490.41
2023-02-27T11:24:48.185Z,99486.91
2023-02-27T11:27:29.496Z,99478.22
2023-02-27T11:30:26.966Z,99469.66
2023-02-27T11:33:00.790Z,99473.22
2023-02-27T11:35:33.007Z,99471.97
2023-02-27T11:38:07.716Z,99472.03
2023-02-27T11:40:40.823Z,99468.63
2023-02-27T11:43:41.653Z,99475.09
2023-02-27T11:46:45.100Z,99475.75
2023-02-27T11:49:41.823Z,99472.50
2023-02-27T11:52:23.782Z,99457.59
2023-02-27T11:55:00.488Z,99465.34
2023-02-27T11:57:34.951Z,99459.59
2023-02-27T12:00:16.331Z,99469.75
2023-02-27T12:03:00.629Z,99466.41
2023-02-27T12:05:51.554Z,99457.38
2023-02-27T12:08:53.852Z,99453.75
2023-02-27T12:11:29.680Z,99466.50
2023-02-27T12:14:11.103Z,99463.53
2023-02-27T12:16:43.102Z,99453.91
2023-02-27T12:19:26.881Z,99452.44
2023-02-27T12:22:03.247Z,99451.34
2023-02-27T12:24:47.196Z,99448.16
2023-02-27T12:27:26.249Z,99444.69
2023-02-27T12:30:05.275Z,99449.69
2023-02-27T12:33:08.066Z,99452.75
2023-02-27T12:35:34.539Z,99438.66
2023-02-27T12:38:02.744Z,99441.50
2023-02-27T12:40:59.365Z,99446.53
2023-02-27T12:44:02.573Z,99441.66
2023-02-27T12:47:04.657Z,99433.03
2023-02-27T12:49:46.904Z,99435.44
2023-02-27T12:52:49.567Z,99435.75
2023-02-27T12:55:22.857Z,99433.78
2023-02-27T12:58:35.854Z,99425.50
2023-02-27T13:01:26.440Z,99426.81
2023-02-27T13:04:03.384Z,99438.13
2023-02-27T13:06:46.183Z,99428.56
2023-02-27T13:09:38.233Z,99444.31
2023-02-27T13:12:07.382Z,99432.78
2023-02-27T13:14:49.673Z,99428.38
2023-02-27T13:17:41.605Z,99419.53
2023-02-27T13:21:12.827Z,99428.38
2023-02-27T13:23:58.448Z,99424.41
2023-02-27T13:26:43.940Z,99414.00
2023-02-27T13:29:17.057Z,99418.09
2023-02-27T13:31:57.757Z,99419.59
2023-02-27T13:34:27.638Z,99411.47
2023-02-27T13:37:03.454Z,99420.72
2023-02-27T13:39:51.741Z,99412.38
2023-02-27T13:42:27.094Z,99413.53
2023-02-27T13:45:46.379Z,99413.66
2023-02-27T13:48:43.751Z,99409.25
2023-02-27T13:51:35.778Z,99415.47
2023-02-27T13:54:14.698Z,99412.94
2023-02-27T13:57:06.758Z,99420.31
2023-02-27T13:59:37.358Z,99418.19
2023-02-27T14:02:27.052Z,99417.03
2023-02-27T14:05:01.611Z,99417.06
2023-02-27T14:07:48.573Z,99423.44
2023-02-27T14:10:24.744Z,99427.94
2023-02-27T14:12:51.760Z,99426.50
2023-02-27T14:15:18.146Z,99418.81
2023-02-27T14:17:47.574Z,99421.59
2023-02-27T14:20:16.872Z,99430.97
2023-02-27T14:23:15.173Z,99421.22
2023-02-27T14:25:54.130Z,99424.25
2023-02-27T14:28:36.067Z,99433.88
2023-02-27T14:31:08.662Z,99426.00
2023-02-27T14:33:48.134Z,99424.13
2023-02-27T14:36:27.147Z,99423.53
2023-02-27T14:38:57.479Z,99428.81
2023-02-27T14:41:38.150Z,99429.88
2023-02-27T14:44:05.252Z,99435.75
2023-02-27T14:46:41.138Z,99428.97
2023-02-27T14:49:30.390Z,99427.16
2023-02-27T14:51:57.665Z,99424.44
2023-02-27T14:54:27.865Z,99427.88
2023-02-27T14:56:59.825Z,99425.22
2023-02-27T14:59:48.010Z,99428.69
2023-02-27T15:02:30.551Z,99431.78
2023-02-27T15:05:03.324Z,99419.34
2023-02-27T15:07:34.369Z,99422.78
2023-02-27T15:10:06.069Z,99424.66
2023-02-27T15:12:39.341Z,99423.38
2023-02-27T15:15:09.758Z,99431.00
2023-02-27T15:17:42.881Z,99447.53
2023-02-27T15:20:35.779Z,99445.63
2023-02-27T15:23:26.131Z,99435.97
2023-02-27T15:25:59.146Z,99435.84
2023-02-27T15:28:34.209Z,99440.75
2023-02-27T15:31:00.805Z,99437.69
2023-02-27T15:33:33.278Z,99441.56
2023-02-27T15:36:01.532Z,99438.69
2023-02-27T15:38:30.954Z,99448.31
2023-02-27T15:41:01.299Z,99443.06
2023-02-27T15:43:29.826Z,99441.84
2023-02-27T15:45:58.210Z,99446.50
2023-02-27T15:48:25.786Z,99447.81
2023-02-27T15:51:02.234Z,99451.41
2023-02-27T15:53:33.808Z,99453.94
2023-02-27T15:56:14.692Z,99455.56
2023-02-27T15:58:54.377Z,99454.19
2023-02-27T16:01:29.690Z,99464.75
2023-02-27T16:04:13.685Z,99464.09
2023-02-27T16:06:49.446Z,99461.69
2023-02-27T16:09:28.726Z,99468.16
2023-02-27T16:12:18.915Z,99468.25
2023-02-27T16:14:45.886Z,99464.13
2023-02-27T16:17:29.564Z,99465.00
2023-02-27T16:20:01.783Z,99469.34
2023-02-27T16:22:30.392Z,99468.69
2023-02-27T16:25:19.257Z,99473.66
2023-02-27T16:27:50.408Z,99481.84
2023-02-27T16:30:16.964Z,99479.25
2023-02-27T16:32:46.604Z,99481.06
2023-02-27T16:35:23.318Z,99484.50
2023-02-27T16:37:50.768Z,99479.34
2023-02-27T16:40:24.424Z,99487.09
2023-02-27T16:42:52.834Z,99493.41
2023-02-27T16:45:27.090Z,99490.78
2023-02-27T16:47:57.766Z,99492.44
2023-02-27T16:50:34.006Z,99489.94
2023-02-27T16:53:01.066Z,99492.38
2023-02-27T16:55:27.788Z,99492.38
2023-02-27T16:57:54.356Z,99496.69
2023-02-27T17:00:22.613Z,99497.56
2023-02-27T17:02:50.996Z,99499.88
2023-02-27T17:05:18.308Z,99500.69
2023-02-27T17:07:45.877Z,99511.25
2023-02-27T17:10:25.405Z,99505.94
2023-02-27T17:12:53.129Z,99504.53
2023-02-27T17:15:20.938Z,99506.81
2023-02-27T17:17:47.473Z,99513.06
2023-02-27T17:20:14.525Z,99514.69
2023-02-27T17:22:44.822Z,99514.81
2023-02-27T17:25:13.105Z,99519.84
2023-02-27T17:27:43.468Z,99520.81
2023-02-27T17:30:11.398Z,99522.44
2023-02-27T17:32:37.925Z,99524.91
2023-02-27T17:35:05.085Z,99524.25
2023-02-27T17:37:31.658Z,99522.84
2023-02-27T17:39:58.217Z,99531.59
2023-02-27T17:42:25.760Z,99536.25
2023-02-27T17:44:52.690Z,99544.06
2023-02-27T17:47:19.496Z,99535.78
2023-02-27T17:49:46.092Z,99541.81
2023-02-27T17:52:12.623Z,99540.13
2023-02-27T17:54:39.442Z,99538.38
2023-02-27T17:57:06.733Z,99536.81
2023-02-27T17:59:33.562Z,99544.72
2023-02-27T18:02:00.109Z,99548.41
2023-02-27T18:04:26.728Z,99551.91
2023-02-27T18:06:53.655Z,99545.16
2023-02-27T18:09:20.277Z,99554.19
2023-02-27T18:11:46.845Z,99549.94
2023-02-27T18:14:13.777Z,99549.13
2023-02-27T18:16:41.246Z,99553.75
2023-02-27T18:19:07.903Z,99547.69
2023-02-27T18:21:34.949Z,99552.88
2023-02-27T18:24:01.534Z,99556.31
2023-02-27T18:26:31.718Z,99557.25
2023-02-27T18:29:08.076Z,99554.03
2023-02-27T18:31:40.118Z,99557.72
2023-02-27T18:34:07.857Z,99555.34
2023-02-27T18:36:35.905Z,99554.69
2023-02-27T18:39:05.026Z,99559.19
2023-02-27T18:41:32.425Z,99560.22
2023-02-27T18:43:59.141Z,99555.22
2023-02-27T18:46:26.372Z,99559.56
2023-02-27T18:48:55.331Z,99553.56
2023-02-27T18:51:21.954Z,99562.22
2023-02-27T18:53:50.094Z,99559.44
2023-02-27T18:56:20.951Z,99560.25
2023-02-27T18:58:47.507Z,99562.78
2023-02-27T19:01:25.659Z,99560.13
2023-02-27T19:03:55.850Z,99564.16
2023-02-27T19:06:22.345Z,99554.41
2023-02-27T19:08:48.805Z,99552.75
2023-02-27T19:11:33.218Z,99550.25
2023-02-27T19:14:08.285Z,99561.34
2023-02-27T19:16:35.740Z,99554.53
2023-02-27T19:19:04.789Z,99554.47
2023-02-27T19:21:34.947Z,99556.28
2023-02-27T19:24:02.592Z,99553.72
2023-02-27T19:26:29.823Z,99553.91
2023-02-27T19:28:56.450Z,99561.00
2023-02-27T19:31:24.479Z,99562.94
2023-02-27T19:33:51.730Z,99561.16
2023-02-27T19:36:21.739Z,99551.75
2023-02-27T19:38:49.702Z,99554.41
2023-02-27T19:41:18.053Z,99555.34
2023-02-27T19:43:46.274Z,99554.56
2023-02-27T19:46:17.042Z,99559.84
2023-02-27T19:48:45.147Z,99565.78
2023-02-27T19:51:14.353Z,99564.00
2023-02-27T19:53:43.404Z,99563.97
2023-02-27T19:56:23.763Z,99570.88
2023-02-27T19:58:51.746Z,99579.72
2023-02-27T20:01:36.217Z,99576.34
2023-02-27T20:04:03.385Z,99577.25
2023-02-27T20:06:33.617Z,99577.34
2023-02-27T20:09:00.660Z,99576.38
2023-02-27T20:11:32.496Z,99579.03
2023-02-27T20:13:59.709Z,99573.84
2023-02-27T20:16:28.777Z,99583.41
2023-02-27T20:18:56.166Z,99583.41
2023-02-27T20:21:24.746Z,99586.91
2023-02-27T20:23:52.844Z,99581.78
2023-02-27T20:26:35.421Z,99586.28
2023-02-27T20:29:10.450Z,99583.75
2023-02-27T20:31:39.165Z,99581.19
2023-02-27T20:34:09.514Z,99576.03
2023-02-27T20:36:37.729Z,99578.59
2023-02-27T20:39:06.303Z,99573.44
2023-02-27T20:41:34.577Z,99579.53
2023-02-27T20:44:01.370Z,99581.31
2023-02-27T20:46:30.252Z,99591.69
2023-02-27T20:49:02.274Z,99586.56
2023-02-27T20:51:35.878Z,99588.34
2023-02-27T20:54:06.692Z,99584.91
2023-02-27T20:56:40.475Z,99583.09
2023-02-27T20:59:12.099Z,99586.53
2023-02-27T21:01:38.954Z,99590.91
2023-02-27T21:04:06.622Z,99584.84
2023-02-27T21:06:34.746Z,99583.16
2023-02-27T21:09:06.255Z,99593.50
2023-02-27T21:11:33.553Z,99589.22
2023-02-27T21:14:06.476Z,99587.53
2023-02-27T21:16:33.021Z,99584.97
2023-02-27T21:18:59.522Z,99585.78
2023-02-27T21:21:34.754Z,99591.75
2023-02-27T21:24:01.774Z,99586.63
2023-02-27T21:26:39.182Z,99585.84
2023-02-27T21:29:10.192Z,99591.16
2023-02-27T21:31:39.274Z,99587.75
2023-02-27T21:34:11.745Z,99590.31
2023-02-27T21:36:50.960Z,99590.28
2023-02-27T21:39:25.740Z,99587.72
2023-02-27T21:41:53.164Z,99580.00
2023-02-27T21:44:25.055Z,99581.72
2023-02-27T21:46:53.706Z,99583.50
2023-02-27T21:49:27.941Z,99586.16
2023-02-27T21:51:55.536Z,99587.88
2023-02-27T21:54:23.203Z,99592.22
2023-02-27T21:56:50.245Z,99585.31
2023-02-27T21:59:19.574Z,99580.13
2023-02-27T22:01:48.131Z,99587.00
2023-02-27T22:04:17.462Z,99586.16
2023-02-27T22:06:44.538Z,99582.72
2023-02-27T22:09:11.055Z,99581.88
2023-02-27T22:11:37.643Z,99586.13
2023-02-27T22:14:06.035Z,99587.00
2023-02-27T22:16:33.915Z,99582.69
2023-02-27T22:19:08.551Z,99585.25
2023-02-27T22:21:36.884Z,99578.34
2023-02-27T22:24:04.218Z,99577.50
2023-02-27T22:26:34.261Z,99577.56
2023-02-27T22:29:01.105Z,99580.16
2023-02-27T22:31:32.341Z,99581.88
2023-02-27T22:34:09.921Z,99589.63
2023-02-27T22:36:37.002Z,99587.06
2023-02-27T22:39:05.950Z,99588.81
2023-02-27T22:41:36.789Z,99592.25
2023-02-27T22:44:04.251Z,99587.09
2023-02-27T22:46:37.180Z,99588.84
2023-02-27T22:49:17.871Z,99594.84
2023-02-27T22:51:45.215Z,99594.88
2023-02-27T22:54:14.365Z,99597.44
2023-02-27T22:56:41.782Z,99599.16
2023-02-27T22:59:08.681Z,99597.47
2023-02-27T23:01:37.253Z,99600.03
2023-02-27T23:04:08.666Z,99606.91
2023-02-27T23:06:39.945Z,99610.38
2023-02-27T23:09:20.806Z,99609.50
2023-02-27T23:11:47.622Z,99616.38
2023-02-27T23:14:14.899Z,99612.09
2023-02-27T23:16:45.364Z,99618.09
2023-02-27T23:19:15.798Z,99616.38
2023-02-27T23:21:42.940Z,99618.09
2023-02-27T23:24:17.018Z,99617.25
2023-02-27T23:26:48.169Z,99617.25
2023-02-27T23:29:15.458Z,99613.81
2023-02-27T23:31:42.534Z,99616.38
2023-02-27T23:34:09.612Z,99612.06
2023-02-27T23:36:38.390Z,99613.81
2023-02-27T23:39:06.888Z,99615.50
2023-02-27T23:41:34.543Z,99613.78
2023-02-27T23:44:01.557Z,99613.78
2023-02-27T23:46:30.476Z,99615.53
2023-02-27T23:48:59.245Z,99615.53
2023-02-27T23:51:30.154Z,99611.22
2023-02-27T23:53:57.839Z,99610.34
2023-02-27T23:56:28.755Z,99610.34
2023-02-27T23:59:02.622Z,99614.63
